createdAt,value
2018-04-07T00:00:10.296Z,2.73
2018-04-07T00:02:37.970Z,4.00
2018-04-07T00:05:05.591Z,3.97
2018-04-07T00:07:33.233Z,1.87
2018-04-07T00:10:00.849Z,2.33
2018-04-07T00:12:28.485Z,3.73
2018-04-07T00:14:56.137Z,6.37
2018-04-07T00:17:23.740Z,2.40
2018-04-07T00:19:51.695Z,3.05
2018-04-07T00:22:19.368Z,4.37
2018-04-07T00:24:47.056Z,6.90
2018-04-07T00:27:15.604Z,3.77
2018-04-07T00:29:43.277Z,6.10
2018-04-07T00:32:10.881Z,3.28
2018-04-07T00:34:38.534Z,4.43
2018-04-07T00:37:06.912Z,1.98
2018-04-07T00:39:35.332Z,3.40
2018-04-07T00:42:02.944Z,2.50
2018-04-07T00:44:31.166Z,4.28
2018-04-07T00:46:58.930Z,5.55
2018-04-07T00:49:27.310Z,2.43
2018-04-07T00:51:55.088Z,6.13
2018-04-07T00:54:22.744Z,3.10
2018-04-07T00:56:50.401Z,3.40
2018-04-07T00:59:18.019Z,2.60
2018-04-07T01:01:45.660Z,6.37
2018-04-07T01:04:13.841Z,4.10
2018-04-07T01:06:42.477Z,2.70
2018-04-07T01:09:10.089Z,4.28
2018-04-07T01:11:37.736Z,5.83
2018-04-07T01:14:06.100Z,5.55
2018-04-07T01:16:34.473Z,4.60
2018-04-07T01:19:02.213Z,3.30
2018-04-07T01:21:30.068Z,4.80
2018-04-07T01:23:57.717Z,3.10
2018-04-07T01:26:25.383Z,6.03
2018-04-07T01:28:53.051Z,4.53
2018-04-07T01:31:20.693Z,2.83
2018-04-07T01:33:48.316Z,4.40
2018-04-07T01:36:15.972Z,4.83
2018-04-07T01:38:44.626Z,3.65
2018-04-07T01:41:12.269Z,3.50
2018-04-07T01:43:44.581Z,2.92
2018-04-07T01:46:12.555Z,3.70
2018-04-07T01:48:41.238Z,5.80
2018-04-07T01:51:09.645Z,6.50
2018-04-07T01:53:37.253Z,4.37
2018-04-07T01:56:06.415Z,3.08
2018-04-07T01:58:34.021Z,5.97
2018-04-07T02:01:01.677Z,2.90
2018-04-07T02:03:30.092Z,3.08
2018-04-07T02:05:57.803Z,6.50
2018-04-07T02:08:25.505Z,8.77
2018-04-07T02:10:54.140Z,2.60
2018-04-07T02:13:21.789Z,4.95
2018-04-07T02:15:50.093Z,2.73
2018-04-07T02:18:17.697Z,4.00
2018-04-07T02:20:45.342Z,2.87
2018-04-07T02:23:12.957Z,6.10
2018-04-07T02:25:41.541Z,2.58
2018-04-07T02:28:09.718Z,6.40
2018-04-07T02:30:37.399Z,4.70
2018-04-07T02:33:05.042Z,5.23
2018-04-07T02:35:33.418Z,3.42
2018-04-07T02:38:01.854Z,11.57
2018-04-07T02:40:29.550Z,7.17
2018-04-07T02:42:57.159Z,3.22
2018-04-07T02:45:24.770Z,3.97
2018-04-07T02:47:52.426Z,3.50
2018-04-07T02:50:20.099Z,4.47
2018-04-07T02:52:47.752Z,2.00
2018-04-07T02:55:15.437Z,7.00
2018-04-07T02:57:43.812Z,4.33
2018-04-07T03:00:11.440Z,3.40
2018-04-07T03:02:39.313Z,4.78
2018-04-07T03:05:07.552Z,4.27
2018-04-07T03:07:35.176Z,4.30
2018-04-07T03:10:03.913Z,7.20
2018-04-07T03:12:31.518Z,3.60
2018-04-07T03:14:59.125Z,5.10
2018-04-07T03:17:26.798Z,3.58
2018-04-07T03:19:54.456Z,2.30
2018-04-07T03:22:22.064Z,5.13
2018-04-07T03:24:50.446Z,4.20
2018-04-07T03:27:18.859Z,3.57
2018-04-07T03:29:46.485Z,2.43
2018-04-07T03:32:14.142Z,3.17
2018-04-07T03:34:42.501Z,3.95
2018-04-07T03:37:10.126Z,2.73
2018-04-07T03:39:37.747Z,6.30
2018-04-07T03:42:05.389Z,3.10
2018-04-07T03:44:33.761Z,4.43
2018-04-07T03:47:01.429Z,3.07
2018-04-07T03:49:29.800Z,6.00
2018-04-07T03:51:57.461Z,5.20
2018-04-07T03:54:25.183Z,6.23
2018-04-07T03:56:52.837Z,5.12
2018-04-07T03:59:20.447Z,4.73
2018-04-07T04:01:48.381Z,2.97
2018-04-07T04:04:16.237Z,3.92
2018-04-07T04:06:43.858Z,5.73
2018-04-07T04:09:11.541Z,4.60
2018-04-07T04:11:39.152Z,7.27
2018-04-07T04:14:06.772Z,3.53
2018-04-07T04:16:34.417Z,2.60
2018-04-07T04:19:02.071Z,4.50
2018-04-07T04:21:29.716Z,4.70
2018-04-07T04:23:57.329Z,2.67
2018-04-07T04:26:25.173Z,5.23
2018-04-07T04:28:52.852Z,3.20
2018-04-07T04:31:20.496Z,4.28
2018-04-07T04:33:48.108Z,9.33
2018-04-07T04:36:16.756Z,7.97
2018-04-07T04:38:44.416Z,4.37
2018-04-07T04:41:12.109Z,2.73
2018-04-07T04:43:39.773Z,4.73
2018-04-07T04:46:07.901Z,4.62
2018-04-07T04:48:35.522Z,2.60
2018-04-07T04:51:03.168Z,3.25
2018-04-07T04:53:31.620Z,2.15
2018-04-07T04:55:59.527Z,3.50
2018-04-07T04:58:27.139Z,6.95
2018-04-07T05:00:54.742Z,3.75
2018-04-07T05:03:22.384Z,3.95
2018-04-07T05:05:50.040Z,4.97
2018-04-07T05:08:17.678Z,6.18
2018-04-07T05:10:45.320Z,9.33
2018-04-07T05:13:12.933Z,5.83
2018-04-07T05:15:40.606Z,4.03
2018-04-07T05:18:08.356Z,7.00
2018-04-07T05:20:36.007Z,2.87
2018-04-07T05:23:03.652Z,5.40
2018-04-07T05:25:31.309Z,3.50
2018-04-07T05:27:58.920Z,3.72
2018-04-07T05:30:26.536Z,5.90
2018-04-07T05:32:54.189Z,4.05
2018-04-07T05:35:21.837Z,4.30
2018-04-07T05:37:49.489Z,5.20
2018-04-07T05:40:17.138Z,3.73
2018-04-07T05:42:44.794Z,3.97
2018-04-07T05:45:12.445Z,5.30
2018-04-07T05:47:40.061Z,5.00
2018-04-07T05:50:08.497Z,6.33
2018-04-07T05:52:36.260Z,3.80
2018-04-07T05:55:03.916Z,6.23
2018-04-07T05:57:31.785Z,3.77
2018-04-07T05:59:59.393Z,5.30
2018-04-07T06:02:27.768Z,7.85
2018-04-07T06:04:56.182Z,4.17
2018-04-07T06:07:23.791Z,9.40
2018-04-07T06:09:51.444Z,8.37
2018-04-07T06:12:19.062Z,5.40
2018-04-07T06:14:46.956Z,4.33
2018-04-07T06:17:14.560Z,3.62
2018-04-07T06:19:42.486Z,3.22
2018-04-07T06:22:10.335Z,5.40
2018-04-07T06:24:38.998Z,3.53
2018-04-07T06:27:06.684Z,7.47
2018-04-07T06:29:34.291Z,5.13
2018-04-07T06:32:02.062Z,5.27
2018-04-07T06:34:29.677Z,5.30
2018-04-07T06:36:57.285Z,8.13
2018-04-07T06:39:24.946Z,7.77
2018-04-07T06:41:52.605Z,3.53
2018-04-07T06:44:20.218Z,3.70
2018-04-07T06:46:47.860Z,3.70
2018-04-07T06:49:16.075Z,4.50
2018-04-07T06:51:43.732Z,5.70
2018-04-07T06:54:12.402Z,3.80
2018-04-07T06:56:40.250Z,4.07
2018-04-07T06:59:07.857Z,3.90
2018-04-07T07:01:35.519Z,5.30
2018-04-07T07:04:03.299Z,6.47
2018-04-07T07:06:30.944Z,6.53
2018-04-07T07:08:58.634Z,6.03
2018-04-07T07:11:26.254Z,5.45
2018-04-07T07:13:54.846Z,7.93
2018-04-07T07:16:22.655Z,5.75
2018-04-07T07:18:50.320Z,6.50
2018-04-07T07:21:18.692Z,7.68
2018-04-07T07:23:46.468Z,6.57
2018-04-07T07:26:14.121Z,7.15
2018-04-07T07:28:41.780Z,6.87
2018-04-07T07:31:09.466Z,5.40
2018-04-07T07:33:37.122Z,6.17
2018-04-07T07:36:04.760Z,8.57
2018-04-07T07:38:32.701Z,4.30
2018-04-07T07:41:00.357Z,7.60
2018-04-07T07:43:28.046Z,6.43
2018-04-07T07:45:56.067Z,5.10
2018-04-07T07:48:24.505Z,6.50
2018-04-07T07:50:52.165Z,4.63
2018-04-07T07:53:20.016Z,4.87
2018-04-07T07:55:48.829Z,3.75
2018-04-07T07:58:16.478Z,7.10
2018-04-07T08:00:44.172Z,5.10
2018-04-07T08:03:12.834Z,5.57
2018-04-07T08:05:40.481Z,4.07
2018-04-07T08:08:08.098Z,5.00
2018-04-07T08:10:36.347Z,5.27
2018-04-07T08:13:03.965Z,5.13
2018-04-07T08:15:31.608Z,8.50
2018-04-07T08:17:59.284Z,6.03
2018-04-07T08:20:27.568Z,9.40
2018-04-07T08:22:55.222Z,7.55
2018-04-07T08:25:23.692Z,6.93
2018-04-07T08:27:51.377Z,8.53
2018-04-07T08:30:19.132Z,6.10
2018-04-07T08:32:46.781Z,7.20
2018-04-07T08:35:14.454Z,11.67
2018-04-07T08:37:42.766Z,6.62
2018-04-07T08:40:11.193Z,8.83
2018-04-07T08:42:38.960Z,6.93
2018-04-07T08:45:06.584Z,6.43
2018-04-07T08:47:34.200Z,5.60
2018-04-07T08:50:01.850Z,6.47
2018-04-07T08:52:29.481Z,7.93
2018-04-07T08:54:57.151Z,4.85
2018-04-07T08:57:24.878Z,6.10
2018-04-07T08:59:56.529Z,14.60
2018-04-07T09:02:24.544Z,7.33
2018-04-07T09:04:52.510Z,5.37
2018-04-07T09:07:20.621Z,6.00
2018-04-07T09:09:48.275Z,9.70
2018-04-07T09:12:15.886Z,9.07
2018-04-07T09:14:43.541Z,7.18
2018-04-07T09:17:11.190Z,5.68
2018-04-07T09:19:39.625Z,6.60
2018-04-07T09:22:07.933Z,7.32
2018-04-07T09:24:35.557Z,7.37
2018-04-07T09:27:03.514Z,6.47
2018-04-07T09:29:31.131Z,6.83
2018-04-07T09:31:58.801Z,6.70
2018-04-07T09:34:26.459Z,5.40
2018-04-07T09:36:54.077Z,6.07
2018-04-07T09:39:21.749Z,6.33
2018-04-07T09:41:50.132Z,8.30
2018-04-07T09:44:18.511Z,8.30
2018-04-07T09:46:47.838Z,6.20
2018-04-07T09:49:15.493Z,8.10
2018-04-07T09:51:43.170Z,7.67
2018-04-07T09:54:10.832Z,7.60
2018-04-07T09:56:38.502Z,7.85
2018-04-07T09:59:06.122Z,9.07
2018-04-07T10:01:36.397Z,8.50
2018-04-07T10:04:04.093Z,7.13
2018-04-07T10:06:31.754Z,7.30
2018-04-07T10:09:02.786Z,8.57
2018-04-07T10:11:31.340Z,8.03
2018-04-07T10:13:58.979Z,12.17
2018-04-07T10:16:26.606Z,8.02
2018-04-07T10:18:54.310Z,8.30
2018-04-07T10:21:21.929Z,9.47
2018-04-07T10:23:49.599Z,8.67
2018-04-07T10:26:17.214Z,8.05
2018-04-07T10:28:44.863Z,6.37
2018-04-07T10:31:12.480Z,5.77
2018-04-07T10:33:40.140Z,6.07
2018-04-07T10:36:08.348Z,7.12
2018-04-07T10:38:39.680Z,7.10
2018-04-07T10:41:07.457Z,8.63
2018-04-07T10:43:37.021Z,8.95
2018-04-07T10:46:04.678Z,7.70
2018-04-07T10:48:33.280Z,7.00
2018-04-07T10:51:01.772Z,7.87
2018-04-07T10:53:31.479Z,9.10
2018-04-07T10:55:59.136Z,6.50
2018-04-07T10:58:26.751Z,5.55
2018-04-07T11:00:55.173Z,6.70
2018-04-07T11:03:22.935Z,7.07
2018-04-07T11:05:50.589Z,6.63
2018-04-07T11:08:18.477Z,5.60
2018-04-07T11:10:48.112Z,6.68
2018-04-07T11:13:15.785Z,9.50
2018-04-07T11:15:44.176Z,6.47
2018-04-07T11:18:12.897Z,6.47
2018-04-07T11:20:40.512Z,10.02
2018-04-07T11:23:08.163Z,10.27
2018-04-07T11:25:35.769Z,6.77
2018-04-07T11:28:03.430Z,6.67
2018-04-07T11:30:31.044Z,10.27
2018-04-07T11:32:59.464Z,7.57
2018-04-07T11:35:27.710Z,7.70
2018-04-07T11:38:00.909Z,7.23
2018-04-07T11:40:28.614Z,6.80
2018-04-07T11:42:56.290Z,8.07
2018-04-07T11:45:24.127Z,7.47
2018-04-07T11:47:51.737Z,10.60
2018-04-07T11:50:19.409Z,7.55
2018-04-07T11:52:47.558Z,10.53
2018-04-07T11:55:15.740Z,10.40
2018-04-07T11:57:44.137Z,9.33
2018-04-07T12:00:11.805Z,9.02
2018-04-07T12:02:39.444Z,8.43
2018-04-07T12:05:07.072Z,9.20
2018-04-07T12:07:34.734Z,8.57
2018-04-07T12:10:02.373Z,11.73
2018-04-07T12:12:30.030Z,9.30
2018-04-07T12:14:57.645Z,8.98
2018-04-07T12:17:25.571Z,7.80
2018-04-07T12:19:53.192Z,8.47
2018-04-07T12:22:20.868Z,7.78
2018-04-07T12:24:48.546Z,7.50
2018-04-07T12:27:16.211Z,9.63
2018-04-07T12:29:43.836Z,8.13
2018-04-07T12:32:11.495Z,8.20
2018-04-07T12:34:39.123Z,9.50
2018-04-07T12:37:06.781Z,7.85
2018-04-07T12:39:35.224Z,8.70
2018-04-07T12:42:03.321Z,7.80
2018-04-07T12:44:31.126Z,7.90
2018-04-07T12:47:01.801Z,9.13
2018-04-07T12:49:29.463Z,10.53
2018-04-07T12:51:57.745Z,8.20
2018-04-07T12:54:26.133Z,8.43
2018-04-07T12:56:53.757Z,8.75
2018-04-07T12:59:21.642Z,16.40
2018-04-07T13:01:49.264Z,9.17
2018-04-07T13:04:16.949Z,10.25
2018-04-07T13:06:44.589Z,11.63
2018-04-07T13:09:13.021Z,9.63
2018-04-07T13:11:40.645Z,8.75
2018-04-07T13:14:08.306Z,8.88
2018-04-07T13:16:36.139Z,13.10
2018-04-07T13:19:04.132Z,9.33
2018-04-07T13:21:31.785Z,8.85
2018-04-07T13:23:59.438Z,8.90
2018-04-07T13:26:27.094Z,7.90
2018-04-07T13:28:54.723Z,7.70
2018-04-07T13:31:23.146Z,9.00
2018-04-07T13:33:51.345Z,7.07
2018-04-07T13:36:18.998Z,10.10
2018-04-07T13:38:46.878Z,7.83
2018-04-07T13:41:15.094Z,8.70
2018-04-07T13:43:42.759Z,9.13
2018-04-07T13:46:10.418Z,6.80
2018-04-07T13:48:38.314Z,7.28
2018-04-07T13:51:06.532Z,10.17
2018-04-07T13:53:34.181Z,6.83
2018-04-07T13:56:02.597Z,7.70
2018-04-07T13:58:30.216Z,7.90
2018-04-07T14:00:57.889Z,10.57
2018-04-07T14:03:25.545Z,8.10
2018-04-07T14:05:53.927Z,8.75
2018-04-07T14:08:21.632Z,6.90
2018-04-07T14:10:49.296Z,8.63
2018-04-07T14:13:16.904Z,8.27
2018-04-07T14:15:45.285Z,8.67
2018-04-07T14:18:13.713Z,7.78
2018-04-07T14:20:41.669Z,7.40
2018-04-07T14:23:09.300Z,8.20
2018-04-07T14:25:36.921Z,7.10
2018-04-07T14:28:04.575Z,7.17
2018-04-07T14:30:32.193Z,7.57
2018-04-07T14:32:59.848Z,8.63
2018-04-07T14:35:27.477Z,9.55
2018-04-07T14:37:55.146Z,7.17
2018-04-07T14:40:22.816Z,9.98
2018-04-07T14:42:50.432Z,8.37
2018-04-07T14:45:18.180Z,7.23
2018-04-07T14:47:46.557Z,6.97
2018-04-07T14:50:14.222Z,6.60
2018-04-07T14:52:41.844Z,6.93
2018-04-07T14:55:09.508Z,7.97
2018-04-07T14:57:37.163Z,6.43
2018-04-07T15:00:04.840Z,7.80
2018-04-07T15:02:34.906Z,7.50
2018-04-07T15:05:02.569Z,7.40
2018-04-07T15:07:30.421Z,7.57
2018-04-07T15:09:58.073Z,7.17
2018-04-07T15:12:25.780Z,6.63
2018-04-07T15:14:53.498Z,7.80
2018-04-07T15:17:21.968Z,11.53
2018-04-07T15:19:49.676Z,6.67
2018-04-07T15:22:17.551Z,6.50
2018-04-07T15:24:45.210Z,7.30
2018-04-07T15:27:13.627Z,6.95
2018-04-07T15:29:41.290Z,7.23
2018-04-07T15:32:08.992Z,7.35
2018-04-07T15:34:36.613Z,6.80
2018-04-07T15:37:04.589Z,7.35
2018-04-07T15:39:32.205Z,6.87
2018-04-07T15:42:00.117Z,6.47
2018-04-07T15:44:27.732Z,7.05
2018-04-07T15:46:55.357Z,6.83
2018-04-07T15:49:23.013Z,9.50
2018-04-07T15:51:50.664Z,7.23
2018-04-07T15:54:18.409Z,9.83
2018-04-07T15:56:46.102Z,6.03
2018-04-07T15:59:14.494Z,6.90
2018-04-07T16:01:42.870Z,8.07
2018-04-07T16:04:11.285Z,7.77
2018-04-07T16:06:38.915Z,8.93
2018-04-07T16:09:06.767Z,7.57
2018-04-07T16:11:35.152Z,7.68
2018-04-07T16:14:03.541Z,8.13
2018-04-07T16:16:31.343Z,7.87
2018-04-07T16:18:58.979Z,7.60
2018-04-07T16:21:26.625Z,8.13
2018-04-07T16:23:54.731Z,7.53
2018-04-07T16:26:23.047Z,7.70
2018-04-07T16:28:50.992Z,10.00
2018-04-07T16:31:18.640Z,8.00
2018-04-07T16:33:47.803Z,10.33
2018-04-07T16:36:19.342Z,7.93
2018-04-07T16:38:46.968Z,9.80
2018-04-07T16:41:14.747Z,9.00
2018-04-07T16:43:43.140Z,7.70
2018-04-07T16:46:13.636Z,9.63
2018-04-07T16:48:41.465Z,7.53
2018-04-07T16:51:09.080Z,8.23
2018-04-07T16:53:36.769Z,7.97
2018-04-07T16:56:06.600Z,7.70
2018-04-07T16:58:36.565Z,13.73
2018-04-07T17:01:07.428Z,8.55
2018-04-07T17:03:38.544Z,14.48
2018-04-07T17:06:06.876Z,11.73
2018-04-07T17:08:38.022Z,10.00
2018-04-07T17:11:08.382Z,10.00
2018-04-07T17:13:37.449Z,7.95
2018-04-07T17:16:05.754Z,8.23
2018-04-07T17:18:33.379Z,7.73
2018-04-07T17:21:01.008Z,7.60
2018-04-07T17:23:28.665Z,7.90
2018-04-07T17:25:56.330Z,8.23
2018-04-07T17:28:27.654Z,8.40
2018-04-07T17:30:55.322Z,8.60
2018-04-07T17:33:22.939Z,9.13
2018-04-07T17:35:50.626Z,7.90
2018-04-07T17:38:19.054Z,9.02
2018-04-07T17:40:46.716Z,8.77
2018-04-07T17:43:15.950Z,8.25
2018-04-07T17:45:46.781Z,13.10
2018-04-07T17:48:14.463Z,9.40
2018-04-07T17:50:43.521Z,8.90
2018-04-07T17:53:11.213Z,9.33
2018-04-07T17:55:38.824Z,10.93
2018-04-07T17:58:06.534Z,9.60
2018-04-07T18:00:34.192Z,8.85
2018-04-07T18:03:01.929Z,8.90
2018-04-07T18:05:31.121Z,9.03
2018-04-07T18:07:59.379Z,10.03
2018-04-07T18:10:27.080Z,9.17
2018-04-07T18:12:55.506Z,10.00
2018-04-07T18:15:23.726Z,10.33
2018-04-07T18:17:52.709Z,9.07
2018-04-07T18:20:21.254Z,8.93
2018-04-07T18:22:51.127Z,10.10
2018-04-07T18:25:19.077Z,10.90
2018-04-07T18:27:47.112Z,12.03
2018-04-07T18:30:16.112Z,9.07
2018-04-07T18:32:44.632Z,10.85
2018-04-07T18:35:12.620Z,12.13
2018-04-07T18:37:40.297Z,14.60
2018-04-07T18:40:07.921Z,12.40
2018-04-07T18:42:35.542Z,12.30
2018-04-07T18:45:03.210Z,13.90
2018-04-07T18:47:30.847Z,11.27
2018-04-07T18:49:58.841Z,15.17
2018-04-07T18:52:26.460Z,9.00
2018-04-07T18:54:54.088Z,11.17
2018-04-07T18:57:21.761Z,13.37
2018-04-07T18:59:50.190Z,23.20
2018-04-07T19:02:17.805Z,22.57
2018-04-07T19:04:45.432Z,22.35
2018-04-07T19:07:13.478Z,19.58
2018-04-07T19:09:42.170Z,12.60
2018-04-07T19:12:10.486Z,11.15
2018-04-07T19:14:39.108Z,9.95
2018-04-07T19:17:06.792Z,10.70
2018-04-07T19:19:34.525Z,11.07
2018-04-07T19:22:02.416Z,10.60
2018-04-07T19:24:30.690Z,10.00
2018-04-07T19:26:59.136Z,10.53
2018-04-07T19:29:27.428Z,10.17
2018-04-07T19:31:55.108Z,10.50
2018-04-07T19:34:22.725Z,11.33
2018-04-07T19:36:50.368Z,11.73
2018-04-07T19:39:19.062Z,10.87
2018-04-07T19:41:47.571Z,11.27
2018-04-07T19:44:15.461Z,10.10
2018-04-07T19:46:43.304Z,12.13
2018-04-07T19:49:12.313Z,13.10
2018-04-07T19:51:39.929Z,11.63
2018-04-07T19:54:08.133Z,13.43
2018-04-07T19:56:35.751Z,11.07
2018-04-07T19:59:04.002Z,11.15
2018-04-07T20:01:31.660Z,9.97
2018-04-07T20:03:59.285Z,12.20
2018-04-07T20:06:26.902Z,10.97
2018-04-07T20:08:55.685Z,11.50
2018-04-07T20:11:23.297Z,10.67
2018-04-07T20:13:51.064Z,9.25
2018-04-07T20:16:18.721Z,12.70
2018-04-07T20:18:46.337Z,11.27
2018-04-07T20:21:13.993Z,10.53
2018-04-07T20:23:41.601Z,12.57
2018-04-07T20:26:09.262Z,14.43
2018-04-07T20:28:36.879Z,10.00
2018-04-07T20:31:04.542Z,11.97
2018-04-07T20:33:32.202Z,10.23
2018-04-07T20:35:59.859Z,13.50
2018-04-07T20:38:27.515Z,13.70
2018-04-07T20:40:56.120Z,13.47
2018-04-07T20:43:23.735Z,14.47
2018-04-07T20:45:51.679Z,11.90
2018-04-07T20:48:24.752Z,12.80
2018-04-07T20:50:58.299Z,12.88
2018-04-07T20:53:26.868Z,13.33
2018-04-07T20:55:54.528Z,12.40
2018-04-07T20:58:23.451Z,13.05
2018-04-07T21:00:51.254Z,12.70
2018-04-07T21:03:18.881Z,11.65
2018-04-07T21:05:46.499Z,14.32
2018-04-07T21:08:14.173Z,11.40
2018-04-07T21:10:42.622Z,12.57
2018-04-07T21:13:10.279Z,10.93
2018-04-07T21:15:37.930Z,11.82
2018-04-07T21:18:06.840Z,11.93
2018-04-07T21:20:35.067Z,15.20
2018-04-07T21:23:02.728Z,12.43
2018-04-07T21:25:30.360Z,12.27
2018-04-07T21:27:58.749Z,13.27
2018-04-07T21:30:26.412Z,11.70
2018-04-07T21:32:54.077Z,12.00
2018-04-07T21:35:21.735Z,12.10
2018-04-07T21:37:49.368Z,14.07
2018-04-07T21:40:17.038Z,11.70
2018-04-07T21:42:45.237Z,11.10
2018-04-07T21:45:12.862Z,10.52
2018-04-07T21:47:40.515Z,13.20
2018-04-07T21:50:08.263Z,12.90
2018-04-07T21:52:36.561Z,11.87
2018-04-07T21:55:04.705Z,12.40
2018-04-07T21:57:32.362Z,11.83
2018-04-07T22:00:00.021Z,14.63
2018-04-07T22:02:27.676Z,12.60
2018-04-07T22:04:55.531Z,16.37
2018-04-07T22:07:23.190Z,16.35
2018-04-07T22:09:50.817Z,12.57
2018-04-07T22:12:18.448Z,12.27
2018-04-07T22:14:47.407Z,12.30
2018-04-07T22:17:15.029Z,11.43
2018-04-07T22:19:42.681Z,11.27
2018-04-07T22:22:11.118Z,13.43
2018-04-07T22:24:38.753Z,12.00
2018-04-07T22:27:06.415Z,14.63
2018-04-07T22:29:34.086Z,12.43
2018-04-07T22:32:01.852Z,14.20
2018-04-07T22:34:29.469Z,12.10
2018-04-07T22:36:57.119Z,10.83
2018-04-07T22:39:24.760Z,15.20
2018-04-07T22:41:52.430Z,12.13
2018-04-07T22:44:20.058Z,11.70
2018-04-07T22:46:47.693Z,12.83
2018-04-07T22:49:15.923Z,11.33
2018-04-07T22:51:43.583Z,13.02
2018-04-07T22:54:12.002Z,16.70
2018-04-07T22:56:39.621Z,12.53
2018-04-07T22:59:07.276Z,14.63
2018-04-07T23:01:34.932Z,12.57
2018-04-07T23:04:02.761Z,15.10
2018-04-07T23:06:30.373Z,12.63
2018-04-07T23:08:58.789Z,16.90
2018-04-07T23:11:26.456Z,12.97
2018-04-07T23:13:54.784Z,14.38
2018-04-07T23:16:22.440Z,16.95
2018-04-07T23:18:50.891Z,13.10
2018-04-07T23:21:18.509Z,13.18
2018-04-07T23:23:46.182Z,13.10
2018-04-07T23:26:13.854Z,14.00
2018-04-07T23:28:41.473Z,15.20
2018-04-07T23:31:09.154Z,13.02
2018-04-07T23:33:36.772Z,12.63
2018-04-07T23:36:05.166Z,15.03
2018-04-07T23:38:33.589Z,14.57
2018-04-07T23:41:01.206Z,14.07
2018-04-07T23:43:28.827Z,13.30
2018-04-07T23:45:56.486Z,14.03
2018-04-07T23:48:24.135Z,13.20
2018-04-07T23:50:52.022Z,16.47
2018-04-07T23:53:19.637Z,15.50
2018-04-07T23:55:47.929Z,12.57
2018-04-07T23:58:15.593Z,16.23
